Port Vue, Pennsylvania
Current Conditions -  °F | °C
As of 11:18 PM on Thursday 18 Dec 2014 (Local Time) from KAGC Reporting Station
Overcast Overcast  
Wind Chill: 17°   Ceiling: 1400
Heat Index: 27°   Visibility: 8mi
Dew Point: 20°   Wind: 12mph
Humidity: 75%   Direction: 250°WSW
Pressure: 30.13"   Gusts: NA
Location:  40.323°N, 79.8617°W
Report Text: KAGC 190418Z 25010KT 8SM OVC014 M03/M07 A3013 RMK AO2 T10281067
Loading
Personal Weather Stations






























Interactive Weather Map New forecast layout! Learn more

10-Day Weather Forecast

Advertisements
Track Severe Weather on mobile